Oriana — ZCDU9 — position and weather

sailwx.info

Track history (hours):
 
Tides and Currents Weather Stations Pressure Air Temp Water Temp Dewpoint Dewpoint Depression Visibility Wind Speed Wind Dir Waves Ship Positions

Oriana (Bermuda)

Last reported at 2016-Jul-26 19:29 UTC. Time now 2016-Jul-26 19:46 UTC.
Position N 45°26' E 012°19'.

Length 261 m; beam 32.2 m; draft 8.2 m.

Type: Ship. MMSI: 310529000.

Date/timePositionNaut miles runAvg speedWind from/ knotsBaromVisibWave heightAir tempDewpointWater temp
2016-Jul-26 19:29N 45°26' E 012°19'0 0.0
2016-Jul-26 18:31N 45°26' E 012°19'0 0.0
2016-Jul-26 17:28N 45°26' E 012°19'0 0.0
2016-Jul-26 16:28N 45°26' E 012°19'0 0.0
2016-Jul-26 15:31N 45°26' E 012°19'0 0.0
2016-Jul-26 14:31N 45°26' E 012°19'0 0.0
2016-Jul-26 13:31N 45°26' E 012°19'0 0.0
2016-Jul-26 12:28N 45°26' E 012°19'0 0.0
2016-Jul-26 11:28N 45°26' E 012°19'0 0.0
2016-Jul-26 10:33N 45°26' E 012°19'4 4.2
2016-Jul-26 09:33N 45°26' E 012°25'9 8.6
2016-Jul-26 08:34N 45°19' E 012°32'1616.4
2016-Jul-26 07:33N 45°07' E 012°49'1717.3
2016-Jul-26 06:34N 44°52' E 012°59'1717.2
2016-Jul-26 05:34N 44°35' E 013°07'1917.7
2016-Jul-26 04:28N 44°17' E 013°16'1918.8
2016-Jul-26 03:27N 44°06' E 013°37'4920.0
2016-Jul-26 01:00N 43°30' E 014°24'12518.7 010 / 141012.810.8 0.524.822.924.0
2016-Jul-25 18:18N 42°38' E 016°59'1519.4
2016-Jul-25 17:33N 42°37' E 017°19'1717.3
2016-Jul-25 16:33N 42°37' E 017°43'29 2.2
2016-Jul-25 03:27N 42°16' E 018°10'1617.6
2016-Jul-25 02:33N 42°01' E 018°17'1717.3
2016-Jul-25 01:34N 41°45' E 018°24'1211.5
2016-Jul-25 00:29N 41°33' E 018°29'1111.3
2016-Jul-24 23:32N 41°22' E 018°32'1111.3
2016-Jul-24 22:33N 41°12' E 018°38'6715.6
2016-Jul-24 18:17N 40°11' E 019°14'28 1.5
2016-Jul-24 00:00N 39°48' E 018°54'140 6.1 330 / 181013.610.8 0.525.122.324.0
2016-Jul-23 01:00N 38°12' E 016°42'3722.8 190 / 31014.5 5.4 25.022.825.0
2016-Jul-22 23:21N 37°41' E 016°15'8221.1
2016-Jul-22 19:28N 36°35' E 015°14'1920.4
2016-Jul-22 18:33N 36°34' E 014°51'2120.7
2016-Jul-22 17:33N 36°38' E 014°25'2121.4
2016-Jul-22 16:33N 36°44' E 013°60'2221.9
2016-Jul-22 15:33N 36°51' E 013°34'2121.2
2016-Jul-22 14:33N 36°58' E 013°09'2120.7
2016-Jul-22 13:33N 37°04' E 012°44'2120.6
2016-Jul-22 12:33N 37°11' E 012°20'2120.8
2016-Jul-22 11:33N 37°18' E 011°55'2020.3
2016-Jul-22 10:33N 37°26' E 011°31'2020.3
2016-Jul-22 09:33N 37°32' E 011°07'2120.7
2016-Jul-22 08:33N 37°38' E 010°42'2121.0
2016-Jul-22 07:34N 37°43' E 010°16'4321.5
2016-Jul-22 05:33N 37°48' E 009°22'3 5.9
2016-Jul-22 05:00N 37°48' E 009°18'1840.9 160 / 301013.510.8 2.026.018.2
2016-Jul-22 04:33N 37°50' E 008°56'2120.8
2016-Jul-22 03:32N 37°48' E 008°29'4420.7
2016-Jul-22 01:25N 37°43' E 007°34'818.4
2016-Jul-22 01:00N 37°42' E 007°24'1023.5 170 / 301010.810.8 1.526.519.624.0
2016-Jul-22 00:33N 37°41' E 007°11'2120.7
2016-Jul-21 23:33N 37°38' E 006°45'2120.6
2016-Jul-21 22:33N 37°36' E 006°19'2120.7
2016-Jul-21 21:33N 37°33' E 005°53'2120.9
2016-Jul-21 20:34N 37°29' E 005°28'2121.1
2016-Jul-21 19:34N 37°26' E 005°01'2120.9
2016-Jul-21 18:33N 37°23' E 004°35'2120.6
2016-Jul-21 17:33N 37°20' E 004°09'2120.9
2016-Jul-21 16:34N 37°17' E 003°44'2120.7
2016-Jul-21 15:33N 37°14' E 003°18'2544.4
2016-Jul-21 15:00N 37°06' E 002°48'512.5 100 / 131012.9 5.4 1.025.122.8
2016-Jul-21 14:33N 37°10' E 002°52'2020.3
2016-Jul-21 13:33N 37°07' E 002°27'2020.4
2016-Jul-21 12:33N 37°03' E 002°02'2120.8
2016-Jul-21 11:33N 36°60' E 001°36'2020.1
2016-Jul-21 10:33N 36°56' E 001°12'2121.1
2016-Jul-21 09:33N 36°52' E 000°46'2020.3
2016-Jul-21 08:34N 36°48' E 000°21'2120.5
2016-Jul-21 07:33N 36°44' W 000°04'2121.0
2016-Jul-21 06:33N 36°40' W 000°30'2221.3
2016-Jul-21 05:31N 36°35' W 000°57'1833.7
2016-Jul-21 05:00N 36°30' W 001°18'7017.5 180 / 191014.3 5.4 2.023.020.7
2016-Jul-21 01:00N 36°12' W 002°42'13347.6 020 / 141014.110.8 0.524.021.023.0
2016-Jul-20 22:12N 35°58' W 005°26'0 0.0
2016-Jul-20 21:21N 35°58' W 005°26'0 0.0
2016-Jul-20 20:31N 35°58' W 005°26'1210.7
2016-Jul-20 19:24N 36°01' W 005°12'6319.1
2016-Jul-20 16:05N 36°21' W 006°26'1120.1
2016-Jul-20 15:33N 36°32' W 006°24'2 0.2
2016-Jul-20 04:31N 36°34' W 006°22'9318.7
2016-Jul-19 23:31N 36°32' W 008°19'1818.5
2016-Jul-19 22:33N 36°32' W 008°41'1818.2
2016-Jul-19 21:33N 36°32' W 009°04'1818.0
2016-Jul-19 20:33N 36°41' W 009°23'1817.9
2016-Jul-19 19:33N 36°56' W 009°35'1918.6
2016-Jul-19 18:33N 37°14' W 009°40'1818.6
2016-Jul-19 17:33N 37°32' W 009°45'1818.5
2016-Jul-19 16:33N 37°50' W 009°51'1918.7
2016-Jul-19 15:33N 38°09' W 009°56'1919.4
2016-Jul-19 14:33N 38°28' W 010°01'1919.2
2016-Jul-19 13:32N 38°46' W 010°07'31619.3
2016-Jul-18 21:12N 44°01' W 009°30'5420.1
2016-Jul-18 18:32N 44°47' W 008°50'6420.1
2016-Jul-18 15:22N 45°41' W 008°02'1919.7
2016-Jul-18 14:25N 45°57' W 007°48'512.4
2016-Jul-18 14:00N 46°00' W 007°42'1328.7 120 / 101014.410.8 0.520.518.919.0
2016-Jul-18 13:33N 46°11' W 007°34'10520.2
2016-Jul-18 08:21N 47°41' W 006°12'1721.4
2016-Jul-18 07:33N 47°55' W 005°59'2221.6
2016-Jul-18 06:33N 48°13' W 005°42'2121.3
2016-Jul-18 05:33N 48°31' W 005°24'2020.2
2016-Jul-18 04:33N 48°45' W 005°02'1919.0
2016-Jul-18 03:33N 48°58' W 004°41'1730.0
2016-Jul-18 03:00N 49°06' W 004°18'610.5 090 / 111021.610.8 0.518.516.018.0
2016-Jul-18 02:24N 49°12' W 004°16'1919.2
2016-Jul-18 01:24N 49°24' W 003°53'1720.1
2016-Jul-18 00:33N 49°36' W 003°34'3021.3
2016-Jul-17 23:09N 49°55' W 002°59'1221.1
2016-Jul-17 22:33N 50°01' W 002°42'2120.6
2016-Jul-17 21:33N 50°09' W 002°12'2019.2
2016-Jul-17 20:32N 50°17' W 001°44'1818.2
2016-Jul-17 19:33N 50°26' W 001°20'1716.9
2016-Jul-17 18:33N 50°37' W 000°60'1212.0
2016-Jul-17 17:34N 50°46' W 001°12'10 9.5
2016-Jul-17 16:33N 50°52' W 001°23'3 2.6
2016-Jul-17 15:29N 50°54' W 001°26'0 0.0
2016-Jul-17 14:32N 50°54' W 001°26'0 0.0
2016-Jul-17 13:32N 50°54' W 001°26'0 0.0
2016-Jul-17 12:32N 50°54' W 001°26'0 0.0
2016-Jul-17 11:32N 50°54' W 001°26'0 0.0
2016-Jul-17 10:32N 50°54' W 001°26'0 0.0
2016-Jul-17 09:32N 50°54' W 001°26'0 0.0
2016-Jul-17 08:32N 50°54' W 001°26'0 0.0
2016-Jul-17 07:29N 50°54' W 001°26'0 0.0
2016-Jul-17 06:32N 50°54' W 001°26'5 2.5
2016-Jul-17 04:34N 50°51' W 001°20'9 8.6
2016-Jul-17 03:33N 50°46' W 001°09'1010.4
2016-Jul-17 02:33N 50°38' W 000°59'1212.2
2016-Jul-17 01:33N 50°30' W 001°14'4410.9
2016-Jul-16 21:32N 50°08' W 002°13'1010.2
2016-Jul-16 20:33N 49°59' W 002°19'1110.9
2016-Jul-16 19:33N 49°55' W 002°35'  
Track history (hours):
 
Tides and Currents Weather Stations Pressure Air Temp Water Temp Dewpoint Dewpoint Depression Visibility Wind Speed Wind Dir Waves Ship Positions

Oriana (Bermuda)

Last reported at 2016-Jul-26 19:29 UTC. Time now 2016-Jul-26 19:46 UTC.
Position N 45°26' E 012°19'.

Length 261 m; beam 32.2 m; draft 8.2 m.

Type: Ship. MMSI: 310529000.

Date/timePositionNaut miles runAvg speedWind from/ knotsBaromVisibWave heightAir tempDewpointWater temp
2016-Jul-26 19:29N 45°26' E 012°19'0 0.0
2016-Jul-26 18:31N 45°26' E 012°19'0 0.0
2016-Jul-26 17:28N 45°26' E 012°19'0 0.0
2016-Jul-26 16:28N 45°26' E 012°19'0 0.0
2016-Jul-26 15:31N 45°26' E 012°19'0 0.0
2016-Jul-26 14:31N 45°26' E 012°19'0 0.0
2016-Jul-26 13:31N 45°26' E 012°19'0 0.0
2016-Jul-26 12:28N 45°26' E 012°19'0 0.0
2016-Jul-26 11:28N 45°26' E 012°19'0 0.0
2016-Jul-26 10:33N 45°26' E 012°19'4 4.2
2016-Jul-26 09:33N 45°26' E 012°25'9 8.6
2016-Jul-26 08:34N 45°19' E 012°32'1616.4
2016-Jul-26 07:33N 45°07' E 012°49'1717.3
2016-Jul-26 06:34N 44°52' E 012°59'1717.2
2016-Jul-26 05:34N 44°35' E 013°07'1917.7
2016-Jul-26 04:28N 44°17' E 013°16'1918.8
2016-Jul-26 03:27N 44°06' E 013°37'4920.0
2016-Jul-26 01:00N 43°30' E 014°24'12518.7 010 / 141012.810.8 0.524.822.924.0
2016-Jul-25 18:18N 42°38' E 016°59'1519.4
2016-Jul-25 17:33N 42°37' E 017°19'1717.3
2016-Jul-25 16:33N 42°37' E 017°43'29 2.2
2016-Jul-25 03:27N 42°16' E 018°10'1617.6
2016-Jul-25 02:33N 42°01' E 018°17'1717.3
2016-Jul-25 01:34N 41°45' E 018°24'1211.5
2016-Jul-25 00:29N 41°33' E 018°29'1111.3
2016-Jul-24 23:32N 41°22' E 018°32'1111.3
2016-Jul-24 22:33N 41°12' E 018°38'6715.6
2016-Jul-24 18:17N 40°11' E 019°14'28 1.5
2016-Jul-24 00:00N 39°48' E 018°54'140 6.1 330 / 181013.610.8 0.525.122.324.0
2016-Jul-23 01:00N 38°12' E 016°42'3722.8 190 / 31014.5 5.4 25.022.825.0
2016-Jul-22 23:21N 37°41' E 016°15'8221.1
2016-Jul-22 19:28N 36°35' E 015°14'1920.4
2016-Jul-22 18:33N 36°34' E 014°51'2120.7
2016-Jul-22 17:33N 36°38' E 014°25'2121.4
2016-Jul-22 16:33N 36°44' E 013°60'2221.9
2016-Jul-22 15:33N 36°51' E 013°34'2121.2
2016-Jul-22 14:33N 36°58' E 013°09'2120.7
2016-Jul-22 13:33N 37°04' E 012°44'2120.6
2016-Jul-22 12:33N 37°11' E 012°20'2120.8
2016-Jul-22 11:33N 37°18' E 011°55'2020.3
2016-Jul-22 10:33N 37°26' E 011°31'2020.3
2016-Jul-22 09:33N 37°32' E 011°07'2120.7
2016-Jul-22 08:33N 37°38' E 010°42'2121.0
2016-Jul-22 07:34N 37°43' E 010°16'4321.5
2016-Jul-22 05:33N 37°48' E 009°22'3 5.9
2016-Jul-22 05:00N 37°48' E 009°18'1840.9 160 / 301013.510.8 2.026.018.2
2016-Jul-22 04:33N 37°50' E 008°56'2120.8
2016-Jul-22 03:32N 37°48' E 008°29'4420.7
2016-Jul-22 01:25N 37°43' E 007°34'818.4
2016-Jul-22 01:00N 37°42' E 007°24'1023.5 170 / 301010.810.8 1.526.519.624.0
2016-Jul-22 00:33N 37°41' E 007°11'2120.7
2016-Jul-21 23:33N 37°38' E 006°45'2120.6
2016-Jul-21 22:33N 37°36' E 006°19'2120.7
2016-Jul-21 21:33N 37°33' E 005°53'2120.9
2016-Jul-21 20:34N 37°29' E 005°28'2121.1
2016-Jul-21 19:34N 37°26' E 005°01'2120.9
2016-Jul-21 18:33N 37°23' E 004°35'2120.6
2016-Jul-21 17:33N 37°20' E 004°09'2120.9
2016-Jul-21 16:34N 37°17' E 003°44'2120.7
2016-Jul-21 15:33N 37°14' E 003°18'2544.4
2016-Jul-21 15:00N 37°06' E 002°48'512.5 100 / 131012.9 5.4 1.025.122.8
2016-Jul-21 14:33N 37°10' E 002°52'2020.3
2016-Jul-21 13:33N 37°07' E 002°27'2020.4
2016-Jul-21 12:33N 37°03' E 002°02'2120.8
2016-Jul-21 11:33N 36°60' E 001°36'2020.1
2016-Jul-21 10:33N 36°56' E 001°12'2121.1
2016-Jul-21 09:33N 36°52' E 000°46'2020.3
2016-Jul-21 08:34N 36°48' E 000°21'2120.5
2016-Jul-21 07:33N 36°44' W 000°04'2121.0
2016-Jul-21 06:33N 36°40' W 000°30'2221.3
2016-Jul-21 05:31N 36°35' W 000°57'1833.7
2016-Jul-21 05:00N 36°30' W 001°18'7017.5 180 / 191014.3 5.4 2.023.020.7
2016-Jul-21 01:00N 36°12' W 002°42'13347.6 020 / 141014.110.8 0.524.021.023.0
2016-Jul-20 22:12N 35°58' W 005°26'0 0.0
2016-Jul-20 21:21N 35°58' W 005°26'0 0.0
2016-Jul-20 20:31N 35°58' W 005°26'1210.7
2016-Jul-20 19:24N 36°01' W 005°12'6319.1
2016-Jul-20 16:05N 36°21' W 006°26'1120.1
2016-Jul-20 15:33N 36°32' W 006°24'2 0.2
2016-Jul-20 04:31N 36°34' W 006°22'9318.7
2016-Jul-19 23:31N 36°32' W 008°19'1818.5
2016-Jul-19 22:33N 36°32' W 008°41'1818.2
2016-Jul-19 21:33N 36°32' W 009°04'1818.0
2016-Jul-19 20:33N 36°41' W 009°23'1817.9
2016-Jul-19 19:33N 36°56' W 009°35'1918.6
2016-Jul-19 18:33N 37°14' W 009°40'1818.6
2016-Jul-19 17:33N 37°32' W 009°45'1818.5
2016-Jul-19 16:33N 37°50' W 009°51'1918.7
2016-Jul-19 15:33N 38°09' W 009°56'1919.4
2016-Jul-19 14:33N 38°28' W 010°01'1919.2
2016-Jul-19 13:32N 38°46' W 010°07'31619.3
2016-Jul-18 21:12N 44°01' W 009°30'5420.1
2016-Jul-18 18:32N 44°47' W 008°50'6420.1
2016-Jul-18 15:22N 45°41' W 008°02'1919.7
2016-Jul-18 14:25N 45°57' W 007°48'512.4
2016-Jul-18 14:00N 46°00' W 007°42'1328.7 120 / 101014.410.8 0.520.518.919.0
2016-Jul-18 13:33N 46°11' W 007°34'10520.2
2016-Jul-18 08:21N 47°41' W 006°12'1721.4
2016-Jul-18 07:33N 47°55' W 005°59'2221.6
2016-Jul-18 06:33N 48°13' W 005°42'2121.3
2016-Jul-18 05:33N 48°31' W 005°24'2020.2
2016-Jul-18 04:33N 48°45' W 005°02'1919.0
2016-Jul-18 03:33N 48°58' W 004°41'1730.0
2016-Jul-18 03:00N 49°06' W 004°18'610.5 090 / 111021.610.8 0.518.516.018.0
2016-Jul-18 02:24N 49°12' W 004°16'1919.2
2016-Jul-18 01:24N 49°24' W 003°53'1720.1
2016-Jul-18 00:33N 49°36' W 003°34'3021.3
2016-Jul-17 23:09N 49°55' W 002°59'1221.1
2016-Jul-17 22:33N 50°01' W 002°42'2120.6
2016-Jul-17 21:33N 50°09' W 002°12'2019.2
2016-Jul-17 20:32N 50°17' W 001°44'1818.2
2016-Jul-17 19:33N 50°26' W 001°20'1716.9
2016-Jul-17 18:33N 50°37' W 000°60'1212.0
2016-Jul-17 17:34N 50°46' W 001°12'10 9.5
2016-Jul-17 16:33N 50°52' W 001°23'3 2.6
2016-Jul-17 15:29N 50°54' W 001°26'0 0.0
2016-Jul-17 14:32N 50°54' W 001°26'0 0.0
2016-Jul-17 13:32N 50°54' W 001°26'0 0.0
2016-Jul-17 12:32N 50°54' W 001°26'0 0.0
2016-Jul-17 11:32N 50°54' W 001°26'0 0.0
2016-Jul-17 10:32N 50°54' W 001°26'0 0.0
2016-Jul-17 09:32N 50°54' W 001°26'0 0.0
2016-Jul-17 08:32N 50°54' W 001°26'0 0.0
2016-Jul-17 07:29N 50°54' W 001°26'0 0.0
2016-Jul-17 06:32N 50°54' W 001°26'5 2.5
2016-Jul-17 04:34N 50°51' W 001°20'9 8.6
2016-Jul-17 03:33N 50°46' W 001°09'1010.4
2016-Jul-17 02:33N 50°38' W 000°59'1212.2
2016-Jul-17 01:33N 50°30' W 001°14'4410.9
2016-Jul-16 21:32N 50°08' W 002°13'1010.2
2016-Jul-16 20:33N 49°59' W 002°19'1110.9
2016-Jul-16 19:33N 49°55' W 002°35'  

Dump ship's entire track history